Airfield :
LOGIN :

Register | Disclaimer

   EN    FR    IT 

 










Legend :    VFR   Marginal VFR   IFR   Intensive IFR   Very Intensive IFR
Visi :
Ceiling :
>= 8 km
>= 3000ft
5 to 8 km
1000 to 3000 ft
1500m to 5 km
500 to 1000 ft
800 to 1500m
200 to 500 ft
< 800m
< 200 ft
Symbols :   Thunderstorms  Fog  Heavy snow  Heavy precipitations  Wind > 20 kt
SIGMETs :     Misc.  Thunderstorms  Icing  Turbulence  Mountain Waves  Volcanic Ashes






- Airport Elevation : 154 ft
- IATA code : SZZ


EPSC - Szczecin Goleniow

CURRENT METAR :
  • 201900Z 12009KT 5000 BR BKN009 BKN039 06/05 Q1018

EXPIRED METARs :
  • 201830Z 12010KT 6000 SCT010 BKN034 06/05 Q1018
  • 201800Z 11012KT 8000 BKN033 07/05 Q1017
  • 201730Z 12009KT 9999 OVC033 07/05 Q1018
  • 201700Z 12011KT 9999 OVC034 07/05 Q1018
  • 201630Z 11008KT 9999 OVC035 07/05 Q1018

TAF TAF EPSC
Valid from the 20 at 18:00 until the 21 at 18:00 UTC


201716Z 2018/2118 11008KT 9999 BKN035
BECMG 2019/2022 4000 BR BKN006
TEMPO 2019/2106 2000 DZ BR BKN002
PROB40 2022/2106 0500 FG OVC001
TEMPO 2112/2118 2500 -RADZ BR BKN003



MET'MAP, your aeronautical weather chart ! - Copyright ORBIFLY December 2007 - Disclaimer

ORBIFLY MET'MAP TEAM :

Programming & Development : Alexandra Zaïnal
Concept & Development : Baudouin d'Aumeries
Co-Development & Prog : Marc-Olivier Méhu
Technical & hardware support : Manuel Goepfert

Contact : metmap@orbifly.com




SOURCES & CREDITS :

   NOAA